Time;durP1;ratioP1;P1;durP2;ratioP2;P2;SDS_P1;SDS_P2;PMS_P1;PMS_P2;Temp;Humidity;BMP_temperature;BMP_pressure;BME280_temperature;BME280_humidity;BME280_pressure;Samples;Min_cycle;Max_cycle;Signal;HPM_P1;HPM_P2
2021/03/01 00:00:37;;;;;;;29.48;20.52;;;5.50;99.90;;;;;;4994939;28;20193;-79
2021/03/01 00:03:06;;;;;;;29.25;21.13;;;5.50;99.90;;;;;;5013775;28;20185;-80
2021/03/01 00:05:32;;;;;;;33.22;21.98;;;5.40;99.90;;;;;;4999439;28;20189;-79
2021/03/01 00:07:58;;;;;;;33.88;21.70;;;5.40;99.90;;;;;;4992362;28;20208;-79
2021/03/01 00:10:27;;;;;;;33.80;21.45;;;5.40;99.90;;;;;;4988715;28;20193;-79
2021/03/01 00:12:53;;;;;;;34.35;20.85;;;5.30;99.90;;;;;;5010014;28;20233;-80
2021/03/01 00:15:22;;;;;;;33.90;21.20;;;5.30;99.90;;;;;;4998659;28;20671;-82
2021/03/01 00:17:51;;;;;;;30.77;23.45;;;5.30;99.90;;;;;;4996441;28;20192;-79
2021/03/01 00:20:17;;;;;;;41.42;24.10;;;5.30;99.90;;;;;;4999536;28;20228;-79
2021/03/01 00:22:45;;;;;;;43.53;23.90;;;5.30;99.90;;;;;;4993113;28;20212;-79
2021/03/01 00:25:14;;;;;;;40.78;22.98;;;5.30;99.90;;;;;;5013115;28;20201;-79
2021/03/01 00:27:40;;;;;;;40.83;24.75;;;5.20;99.90;;;;;;5006658;28;20240;-79
2021/03/01 00:30:10;;;;;;;47.05;26.77;;;5.20;99.90;;;;;;4990256;28;20243;-79
2021/03/01 00:32:37;;;;;;;41.65;26.38;;;5.20;99.90;;;;;;5016139;28;20193;-80
2021/03/01 00:35:05;;;;;;;43.72;27.75;;;5.20;99.90;;;;;;4996302;28;20181;-80
2021/03/01 00:37:31;;;;;;;44.28;26.20;;;5.20;99.90;;;;;;4991523;28;20196;-80
2021/03/01 00:39:57;;;;;;;45.03;25.80;;;5.20;99.90;;;;;;4996095;28;20703;-79
2021/03/01 00:42:33;;;;;;;42.78;26.13;;;5.20;99.90;;;;;;5015584;28;20664;-79
2021/03/01 00:45:00;;;;;;;38.30;26.60;;;5.20;99.90;;;;;;5012589;28;20193;-79
2021/03/01 00:47:26;;;;;;;39.72;24.95;;;5.10;99.90;;;;;;4996063;28;20307;-79
2021/03/01 00:49:52;;;;;;;41.38;23.88;;;5.10;99.90;;;;;;5008770;28;20247;-79
2021/03/01 00:52:21;;;;;;;42.45;23.83;;;5.20;99.90;;;;;;4996467;28;20263;-79
2021/03/01 00:54:53;;;;;;;43.10;23.75;;;5.10;99.90;;;;;;5002817;28;20197;-80
2021/03/01 00:57:19;;;;;;;43.22;21.75;;;5.00;99.90;;;;;;4997135;28;20211;-79
2021/03/01 00:59:46;;;;;;;30.60;20.98;;;5.00;99.90;;;;;;5010793;28;20185;-79
2021/03/01 01:02:17;;;;;;;36.20;21.10;;;4.90;99.90;;;;;;5026988;28;20197;-79
2021/03/01 01:05:04;;;;;;;38.40;23.30;;;4.80;99.90;;;;;;5005974;28;20200;-79
2021/03/01 01:07:29;;;;;;;38.33;23.55;;;4.80;99.90;;;;;;4999368;28;20683;-79
2021/03/01 01:09:56;;;;;;;37.33;22.55;;;4.80;99.90;;;;;;4999444;28;20645;-80
2021/03/01 01:12:24;;;;;;;33.92;21.10;;;4.70;99.90;;;;;;4990640;28;20185;-80
2021/03/01 01:14:50;;;;;;;34.03;21.08;;;4.70;99.90;;;;;;4999383;28;20200;-80
2021/03/01 01:17:19;;;;;;;37.85;21.55;;;4.80;99.90;;;;;;4995378;28;20277;-80
2021/03/01 01:19:47;;;;;;;36.38;21.20;;;4.70;99.90;;;;;;5007845;28;20189;-79
2021/03/01 01:22:17;;;;;;;36.63;20.77;;;4.80;99.90;;;;;;4991241;28;20192;-79
2021/03/01 01:24:43;;;;;;;46.75;24.42;;;4.80;99.90;;;;;;4998688;28;20262;-79
2021/03/01 01:27:10;;;;;;;37.58;22.80;;;4.80;99.90;;;;;;5015483;28;20282;-79
2021/03/01 01:29:38;;;;;;;35.65;21.70;;;4.90;99.90;;;;;;4991027;28;20216;-79
2021/03/01 01:32:09;;;;;;;32.00;20.83;;;4.90;99.90;;;;;;4992008;28;20204;-79
2021/03/01 01:34:40;;;;;;;36.35;20.48;;;5.00;99.90;;;;;;5006607;28;20243;-79
2021/03/01 01:37:06;;;;;;;38.15;22.42;;;4.90;99.90;;;;;;4998289;28;20186;-79
2021/03/01 01:39:34;;;;;;;33.65;21.42;;;4.90;99.90;;;;;;5015316;28;20200;-80
2021/03/01 01:42:03;;;;;;;39.33;23.02;;;5.00;99.90;;;;;;4997572;28;20200;-79
2021/03/01 01:44:32;;;;;;;34.88;21.58;;;5.00;99.90;;;;;;4995837;28;20280;-79
2021/03/01 01:47:01;;;;;;;41.38;22.85;;;5.00;99.90;;;;;;5014528;28;20326;-79
2021/03/01 01:49:27;;;;;;;38.58;22.80;;;5.00;99.90;;;;;;4995339;28;20224;-79
2021/03/01 01:51:55;;;;;;;40.00;20.33;;;5.00;99.90;;;;;;4998136;28;20216;-79
2021/03/01 01:54:24;;;;;;;34.80;21.83;;;5.10;99.90;;;;;;4994889;28;20277;-79
2021/03/01 01:56:50;;;;;;;35.80;20.92;;;5.10;99.90;;;;;;5005287;28;20185;-80
2021/03/01 01:59:21;;;;;;;37.95;21.90;;;5.20;99.90;;;;;;5012368;28;20233;-79
2021/03/01 02:01:51;;;;;;;37.70;22.38;;;5.10;99.90;;;;;;4998514;28;20189;-79
2021/03/01 02:04:48;;;;;;;34.88;21.60;;;5.10;99.90;;;;;;4995885;28;20197;-79
2021/03/01 02:07:20;;;;;;;34.90;20.98;;;5.10;99.90;;;;;;5029376;28;20278;-80
2021/03/01 02:10:05;;;;;;;40.17;21.10;;;5.10;99.90;;;;;;4998705;28;20217;-80
2021/03/01 02:12:53;;;;;;;36.95;20.10;;;5.10;99.90;;;;;;4997874;28;20178;-79
2021/03/01 02:15:53;;;;;;;36.17;20.55;;;5.10;99.90;;;;;;4995686;28;20221;-80
2021/03/01 02:18:22;;;;;;;35.15;20.60;;;5.10;99.90;;;;;;4998001;28;20190;-79
2021/03/01 02:20:48;;;;;;;36.05;20.52;;;5.00;99.90;;;;;;4991135;28;20205;-79
2021/03/01 02:23:16;;;;;;;35.85;19.75;;;5.00;99.90;;;;;;5016080;28;20761;-80
2021/03/01 02:26:03;;;;;;;39.03;22.63;;;5.10;99.90;;;;;;4988122;28;20197;-80
2021/03/01 02:28:45;;;;;;;34.13;19.88;;;5.10;99.90;;;;;;5034669;28;20228;-80
2021/03/01 02:31:17;;;;;;;33.05;19.70;;;5.10;99.90;;;;;;5011719;28;20320;-80
2021/03/01 02:33:52;;;;;;;33.45;18.80;;;5.10;99.90;;;;;;5014340;28;20204;-79
2021/03/01 02:36:46;;;;;;;37.55;21.17;;;5.10;99.90;;;;;;5014327;28;20250;-80
2021/03/01 02:39:20;;;;;;;39.55;21.23;;;5.10;99.90;;;;;;4993774;28;20207;-79
2021/03/01 02:41:50;;;;;;;33.72;20.45;;;5.10;99.90;;;;;;5002004;28;20221;-80
2021/03/01 02:44:17;;;;;;;31.05;20.23;;;5.10;99.90;;;;;;4997864;28;20666;-80
2021/03/01 02:46:48;;;;;;;30.05;18.55;;;5.10;99.90;;;;;;5011459;28;20225;-79
2021/03/01 02:49:17;;;;;;;32.95;21.52;;;5.20;99.90;;;;;;5006348;28;20234;-79
2021/03/01 02:51:48;;;;;;;35.03;19.70;;;5.20;99.90;;;;;;5009098;28;20247;-79
2021/03/01 02:54:18;;;;;;;36.25;19.75;;;5.20;99.90;;;;;;4993287;28;20213;-80
2021/03/01 02:56:51;;;;;;;35.33;20.73;;;5.20;99.90;;;;;;5012938;28;20181;-79
2021/03/01 02:59:20;;;;;;;33.08;19.48;;;4.80;99.90;;;;;;4995606;28;20672;-79
2021/03/01 03:01:48;;;;;;;31.67;20.20;;;5.10;99.90;;;;;;5000864;28;20197;-80
2021/03/01 03:04:22;;;;;;;32.08;20.88;;;5.00;99.90;;;;;;5001739;28;20199;-79
2021/03/01 03:06:55;;;;;;;30.25;19.38;;;5.00;99.90;;;;;;4998678;28;20200;-79
2021/03/01 03:09:24;;;;;;;29.52;17.65;;;5.00;99.90;;;;;;5015644;28;20368;-78
2021/03/01 03:12:00;;;;;;;29.08;18.02;;;4.90;99.90;;;;;;5002505;28;20551;-80
2021/03/01 03:14:28;;;;;;;31.33;18.73;;;4.80;99.90;;;;;;5000811;28;20200;-80
2021/03/01 03:17:00;;;;;;;33.80;20.02;;;4.80;99.90;;;;;;5017662;28;20514;-80
2021/03/01 03:19:27;;;;;;;33.63;20.95;;;4.80;99.90;;;;;;5000617;28;20307;-79
2021/03/01 03:21:53;;;;;;;38.10;20.23;;;4.70;99.90;;;;;;5001494;28;20193;-80
2021/03/01 03:24:22;;;;;;;39.13;21.00;;;4.80;99.90;;;;;;4991047;28;20318;-79
2021/03/01 03:26:48;;;;;;;32.50;19.27;;;4.70;99.90;;;;;;4992867;28;20315;-79
2021/03/01 03:29:18;;;;;;;31.23;19.27;;;4.80;99.90;;;;;;4991569;28;20287;-79
2021/03/01 03:31:48;;;;;;;37.63;20.88;;;4.80;99.90;;;;;;4992940;28;20536;-79
2021/03/01 03:34:20;;;;;;;31.52;18.02;;;4.70;99.90;;;;;;5000733;28;20199;-80
2021/03/01 03:37:03;;;;;;;31.95;21.02;;;4.70;99.90;;;;;;4998192;28;20193;-80
2021/03/01 03:39:36;;;;;;;35.22;19.20;;;4.70;99.90;;;;;;5000701;28;20284;-80
2021/03/01 03:42:04;;;;;;;33.95;19.25;;;4.70;99.90;;;;;;5000878;28;20192;-79
2021/03/01 03:44:36;;;;;;;32.35;19.42;;;4.70;99.90;;;;;;4992081;28;20221;-79
2021/03/01 03:47:05;;;;;;;32.60;19.73;;;4.70;99.90;;;;;;5000611;28;20266;-80
2021/03/01 03:49:32;;;;;;;31.80;18.38;;;4.70;99.90;;;;;;4984079;28;20263;-80
2021/03/01 03:52:00;;;;;;;33.63;19.95;;;4.80;99.90;;;;;;5001061;28;20276;-80
2021/03/01 03:54:35;;;;;;;34.20;20.88;;;4.90;99.90;;;;;;4989537;28;20228;-79
2021/03/01 03:57:12;;;;;;;34.25;20.05;;;4.90;99.90;;;;;;5016979;28;20227;-80
2021/03/01 03:59:43;;;;;;;36.22;19.70;;;4.90;99.90;;;;;;4996094;28;20588;-79
2021/03/01 04:02:11;;;;;;;31.27;18.73;;;4.90;99.90;;;;;;4996933;28;20258;-80
2021/03/01 04:04:38;;;;;;;34.90;19.80;;;4.90;99.90;;;;;;5034136;28;20197;-79
2021/03/01 04:07:07;;;;;;;32.53;18.95;;;4.80;99.90;;;;;;4993790;28;20198;-80
2021/03/01 04:09:38;;;;;;;34.00;18.95;;;4.80;99.90;;;;;;5012421;28;20217;-80
2021/03/01 04:12:09;;;;;;;32.35;18.63;;;4.90;99.90;;;;;;5001005;28;20228;-79
2021/03/01 04:14:36;;;;;;;35.60;20.10;;;4.90;99.90;;;;;;4996599;28;20181;-80
2021/03/01 04:17:07;;;;;;;33.67;19.45;;;4.90;99.90;;;;;;4999802;28;20550;-80
2021/03/01 04:19:40;;;;;;;35.47;20.20;;;4.80;99.90;;;;;;5016510;28;20275;-79
2021/03/01 04:22:07;;;;;;;31.48;18.23;;;4.80;99.90;;;;;;5000359;28;20255;-79
2021/03/01 04:24:36;;;;;;;32.35;19.20;;;4.90;99.90;;;;;;4987866;28;20536;-80
2021/03/01 04:27:04;;;;;;;37.38;21.63;;;4.90;99.90;;;;;;5013037;28;20248;-80
2021/03/01 04:29:31;;;;;;;33.75;20.13;;;4.90;99.90;;;;;;5014186;28;20217;-80
2021/03/01 04:32:00;;;;;;;31.55;19.25;;;4.90;99.90;;;;;;5014980;28;20586;-80
2021/03/01 04:34:26;;;;;;;32.20;20.20;;;4.90;99.90;;;;;;5000052;28;20260;-80
2021/03/01 04:36:54;;;;;;;32.20;19.08;;;4.90;99.90;;;;;;4996397;28;20185;-80
2021/03/01 04:39:24;;;;;;;34.50;19.23;;;5.00;99.90;;;;;;5016337;28;20200;-79
2021/03/01 04:41:52;;;;;;;37.22;21.02;;;4.90;99.90;;;;;;4996715;28;20555;-79
2021/03/01 04:44:21;;;;;;;32.60;17.90;;;4.90;99.90;;;;;;5005618;28;20627;-79
2021/03/01 04:46:54;;;;;;;34.30;20.13;;;4.90;99.90;;;;;;5006722;28;20219;-80
2021/03/01 04:49:23;;;;;;;37.05;20.95;;;4.90;99.90;;;;;;4992118;28;20378;-80
2021/03/01 04:51:53;;;;;;;33.45;19.05;;;4.80;99.90;;;;;;4991479;28;20276;-79
2021/03/01 04:54:26;;;;;;;40.67;19.08;;;4.80;99.90;;;;;;5032849;28;20546;-79
2021/03/01 04:56:54;;;;;;;31.15;17.98;;;4.90;99.90;;;;;;5016105;28;20224;-79
2021/03/01 04:59:26;;;;;;;31.90;18.08;;;4.80;99.90;;;;;;4994310;28;20201;-79
2021/03/01 05:01:56;;;;;;;33.33;18.63;;;4.90;99.90;;;;;;5004576;28;20291;-79
2021/03/01 05:04:26;;;;;;;33.90;19.92;;;4.90;99.90;;;;;;4994313;28;20189;-79
2021/03/01 05:06:56;;;;;;;30.75;18.27;;;4.90;99.90;;;;;;4995377;28;20636;-80
2021/03/01 05:09:23;;;;;;;34.63;17.80;;;5.00;99.90;;;;;;5028289;28;20224;-79
2021/03/01 05:11:49;;;;;;;32.97;19.00;;;4.90;99.90;;;;;;5015213;28;20189;-79
2021/03/01 05:14:17;;;;;;;37.60;21.15;;;4.90;99.90;;;;;;4998488;28;20189;-80
2021/03/01 05:16:44;;;;;;;34.28;19.90;;;4.80;99.90;;;;;;4998987;28;20192;-79
2021/03/01 05:19:10;;;;;;;36.83;20.08;;;4.80;99.90;;;;;;4995438;28;20200;-80
2021/03/01 05:21:40;;;;;;;33.60;19.08;;;4.50;99.90;;;;;;5011194;28;20727;-79
2021/03/01 05:24:09;;;;;;;32.35;18.23;;;4.90;99.90;;;;;;4991386;28;20185;-80
2021/03/01 05:26:38;;;;;;;29.52;18.80;;;4.90;99.90;;;;;;5006030;28;20189;-79
2021/03/01 05:29:04;;;;;;;31.15;17.70;;;4.80;99.90;;;;;;4999274;28;20232;-79
2021/03/01 05:31:33;;;;;;;30.88;18.10;;;4.80;99.90;;;;;;4996318;28;20205;-79
2021/03/01 05:33:59;;;;;;;33.28;18.77;;;4.80;99.90;;;;;;5012136;28;20185;-79
2021/03/01 05:36:27;;;;;;;32.17;18.85;;;4.90;99.90;;;;;;5011586;28;20188;-79
2021/03/01 05:38:53;;;;;;;32.45;18.65;;;4.80;99.90;;;;;;4990536;28;20211;-80
2021/03/01 05:41:23;;;;;;;33.97;20.15;;;4.90;99.90;;;;;;5009494;28;20201;-80
2021/03/01 05:43:49;;;;;;;32.92;19.23;;;4.90;99.90;;;;;;5012529;28;20610;-79
2021/03/01 05:46:16;;;;;;;30.63;18.95;;;4.90;99.90;;;;;;4984828;28;20280;-79
2021/03/01 05:48:43;;;;;;;25.58;17.50;;;4.90;99.90;;;;;;5005148;28;20536;-79
2021/03/01 05:51:15;;;;;;;29.75;18.55;;;4.90;99.90;;;;;;4991574;28;20196;-79
2021/03/01 05:53:47;;;;;;;35.15;19.05;;;5.00;99.90;;;;;;4995467;28;20279;-80
2021/03/01 05:56:23;;;;;;;26.75;17.60;;;4.60;99.90;;;;;;5008881;28;20525;-80
2021/03/01 05:58:54;;;;;;;30.20;18.50;;;4.90;99.90;;;;;;5003127;28;20220;-80
2021/03/01 06:01:25;;;;;;;30.52;17.90;;;4.90;99.90;;;;;;4997949;28;20197;-80
2021/03/01 06:03:51;;;;;;;32.28;18.20;;;4.80;99.90;;;;;;4994162;28;20622;-80
2021/03/01 06:06:17;;;;;;;30.25;18.63;;;4.80;99.90;;;;;;4990750;28;20197;-80
2021/03/01 06:08:43;;;;;;;28.23;16.20;;;4.80;99.90;;;;;;4998871;28;20720;-79
2021/03/01 06:11:12;;;;;;;25.02;16.50;;;4.80;99.90;;;;;;5018600;28;20513;-80
2021/03/01 06:13:40;;;;;;;32.65;19.30;;;4.80;99.90;;;;;;5018965;28;20618;-80
2021/03/01 06:16:07;;;;;;;27.48;17.15;;;4.70;99.90;;;;;;5014108;28;20224;-80
2021/03/01 06:18:41;;;;;;;29.58;18.10;;;4.70;99.90;;;;;;5000769;28;20255;-79
2021/03/01 06:21:12;;;;;;;31.70;17.90;;;4.60;99.90;;;;;;5001791;28;20192;-79
2021/03/01 06:23:40;;;;;;;32.10;18.50;;;4.60;99.90;;;;;;5002425;28;20262;-81
2021/03/01 06:26:26;;;;;;;29.13;17.55;;;4.60;99.90;;;;;;5002359;28;20188;-80
2021/03/01 06:28:56;;;;;;;30.75;17.77;;;4.60;99.90;;;;;;4993808;28;20230;-80
2021/03/01 06:31:43;;;;;;;30.80;18.30;;;4.70;99.90;;;;;;5007481;28;20200;-79
2021/03/01 06:34:24;;;;;;;31.83;17.77;;;4.60;99.90;;;;;;5031258;28;20181;-78
2021/03/01 06:37:02;;;;;;;29.30;18.50;;;4.60;99.90;;;;;;5035099;28;20196;-78
2021/03/01 06:39:46;;;;;;;29.35;16.77;;;4.60;99.90;;;;;;5033976;28;20555;-79
2021/03/01 06:42:20;;;;;;;30.75;17.67;;;4.60;99.90;;;;;;5035050;28;20219;-79
2021/03/01 06:45:06;;;;;;;30.35;18.70;;;4.70;99.90;;;;;;5033903;28;20195;-78
2021/03/01 06:47:48;;;;;;;30.73;18.63;;;4.50;99.90;;;;;;5035259;28;20184;-78
2021/03/01 06:50:32;;;;;;;28.75;18.15;;;4.80;99.90;;;;;;5034094;28;20204;-79
2021/03/01 06:53:13;;;;;;;29.17;16.20;;;4.80;99.90;;;;;;5033953;28;20242;-80
2021/03/01 06:56:05;;;;;;;25.73;16.40;;;4.90;99.90;;;;;;5031342;28;20212;-81
2021/03/01 06:58:41;;;;;;;33.42;18.27;;;4.90;99.90;;;;;;5029360;28;20205;-81
2021/03/01 07:01:15;;;;;;;33.88;19.17;;;4.90;99.90;;;;;;5033766;28;20788;-79
2021/03/01 07:03:53;;;;;;;31.42;17.92;;;5.00;99.90;;;;;;5017743;28;20332;-81
2021/03/01 07:06:34;;;;;;;30.17;17.13;;;5.00;99.90;;;;;;5033871;28;20208;-81
2021/03/01 07:09:03;;;;;;;30.35;19.45;;;5.00;99.90;;;;;;5029698;28;20205;-81
2021/03/01 07:11:33;;;;;;;31.58;16.58;;;5.00;99.90;;;;;;5016701;28;20642;-80
2021/03/01 07:14:07;;;;;;;29.92;17.85;;;5.10;99.90;;;;;;5016623;28;20199;-80
2021/03/01 07:16:41;;;;;;;32.30;17.63;;;5.00;99.90;;;;;;5015613;28;20224;-81
2021/03/01 07:19:20;;;;;;;27.42;17.40;;;5.10;99.90;;;;;;5031599;28;20189;-80
2021/03/01 07:21:51;;;;;;;31.67;17.67;;;5.10;99.90;;;;;;5016045;28;20190;-80
2021/03/01 07:24:22;;;;;;;28.80;15.90;;;5.20;99.90;;;;;;5028913;28;20192;-80
2021/03/01 07:26:59;;;;;;;27.15;17.05;;;5.10;99.90;;;;;;5034608;28;20566;-80
2021/03/01 07:29:34;;;;;;;29.13;17.92;;;5.20;99.90;;;;;;5034744;28;20204;-81
2021/03/01 07:32:22;;;;;;;29.95;17.23;;;5.30;99.90;;;;;;5028714;28;20192;-80
2021/03/01 07:34:54;;;;;;;24.55;16.90;;;5.30;99.90;;;;;;5034723;28;20185;-80
2021/03/01 07:37:24;;;;;;;26.75;16.25;;;5.40;99.90;;;;;;5034622;28;20197;-80
2021/03/01 07:39:51;;;;;;;30.48;17.77;;;5.40;99.90;;;;;;5033982;28;20193;-80
2021/03/01 07:42:27;;;;;;;27.05;15.85;;;5.30;99.90;;;;;;5034379;28;20189;-80
2021/03/01 07:44:54;;;;;;;27.27;16.90;;;5.30;99.90;;;;;;5031698;28;20295;-80
2021/03/01 08:00:09;;;;;;;25.88;16.10;;;5.40;99.90;;;;;;5032726;28;20277;-81
2021/03/01 08:02:37;;;;;;;28.20;17.48;;;5.20;99.90;;;;;;4963339;28;20235;-75
2021/03/01 08:05:28;;;;;;;25.55;15.40;;;5.30;99.90;;;;;;4932046;29;20199;-75
2021/03/01 08:07:55;;;;;;;26.17;15.60;;;5.20;99.90;;;;;;4932212;29;20203;-75
2021/03/01 08:10:27;;;;;;;23.13;14.45;;;5.40;99.90;;;;;;4933488;29;20219;-75
2021/03/01 08:12:55;;;;;;;21.45;15.40;;;5.30;99.90;;;;;;4950529;29;20226;-75
2021/03/01 08:15:30;;;;;;;22.02;14.35;;;5.30;99.90;;;;;;4950215;29;20200;-75
2021/03/01 08:17:58;;;;;;;22.92;15.05;;;5.40;99.90;;;;;;4950883;28;20194;-75
2021/03/01 08:20:24;;;;;;;21.50;14.45;;;5.50;99.90;;;;;;4951708;28;20738;-75
2021/03/01 08:23:05;;;;;;;22.92;14.85;;;5.50;99.90;;;;;;4951577;29;20674;-75
2021/03/01 08:25:48;;;;;;;21.48;14.68;;;5.50;99.90;;;;;;4948327;29;20195;-75
2021/03/01 08:28:23;;;;;;;20.92;13.95;;;5.50;99.90;;;;;;4949570;29;20205;-75
2021/03/01 08:30:53;;;;;;;20.60;14.05;;;5.60;99.90;;;;;;4949804;29;20238;-75
2021/03/01 08:33:22;;;;;;;23.45;14.35;;;5.50;99.90;;;;;;4946188;29;21042;-75
2021/03/01 08:35:56;;;;;;;18.77;14.38;;;5.60;99.90;;;;;;4949741;29;20238;-75
2021/03/01 08:38:41;;;;;;;21.95;14.48;;;5.70;99.90;;;;;;4949532;29;20198;-75
2021/03/01 08:41:12;;;;;;;20.52;14.30;;;5.80;99.90;;;;;;4951085;28;20693;-75
2021/03/01 08:43:48;;;;;;;20.35;13.75;;;5.90;99.90;;;;;;4950599;28;20198;-76
2021/03/01 08:46:14;;;;;;;19.77;14.80;;;6.10;99.90;;;;;;4949744;28;20191;-76
2021/03/01 08:48:41;;;;;;;17.30;12.20;;;6.20;99.90;;;;;;4940428;29;20208;-75
2021/03/01 08:51:10;;;;;;;16.98;12.40;;;6.30;99.90;;;;;;4933477;29;20480;-76
2021/03/01 08:53:38;;;;;;;18.10;12.30;;;6.40;99.90;;;;;;4932491;29;20177;-75
2021/03/01 08:56:04;;;;;;;17.27;12.27;;;6.30;99.90;;;;;;4933936;29;20176;-76
2021/03/01 08:58:35;;;;;;;16.95;12.20;;;6.20;99.90;;;;;;4948328;29;20184;-76
2021/03/01 09:01:05;;;;;;;15.32;11.20;;;6.20;99.90;;;;;;4932049;29;20236;-76
2021/03/01 09:03:35;;;;;;;17.30;12.10;;;6.00;99.90;;;;;;4933236;29;20192;-76
2021/03/01 09:06:08;;;;;;;15.18;11.02;;;6.00;99.90;;;;;;4932054;29;20203;-74
2021/03/01 09:08:46;;;;;;;18.00;12.07;;;6.00;99.90;;;;;;4948350;29;20627;-75
2021/03/01 09:11:19;;;;;;;16.58;12.23;;;6.00;99.90;;;;;;4949755;29;20215;-74
2021/03/01 09:13:47;;;;;;;18.70;11.25;;;6.10;99.90;;;;;;4949246;29;20266;-75
2021/03/01 09:16:17;;;;;;;18.23;12.93;;;6.40;99.90;;;;;;4941138;29;20187;-75
2021/03/01 09:18:49;;;;;;;16.85;12.00;;;6.60;99.90;;;;;;4949526;29;20212;-75
2021/03/01 09:21:17;;;;;;;18.35;13.15;;;7.00;99.90;;;;;;4932275;29;20227;-75
2021/03/01 09:23:54;;;;;;;14.57;10.73;;;7.20;99.90;;;;;;4949249;29;20228;-75
2021/03/01 09:26:23;;;;;;;14.80;10.80;;;7.40;99.90;;;;;;4950467;28;20207;-75
2021/03/01 09:29:08;;;;;;;17.42;12.05;;;7.40;99.90;;;;;;4950086;29;20240;-75
2021/03/01 09:31:43;;;;;;;16.30;12.10;;;7.30;99.90;;;;;;4932611;29;20220;-75
2021/03/01 09:34:13;;;;;;;14.30;11.48;;;7.20;99.90;;;;;;4947908;29;20680;-75
2021/03/01 09:36:47;;;;;;;17.40;13.30;;;7.40;99.90;;;;;;4948963;29;20215;-76
2021/03/01 09:39:18;;;;;;;14.75;11.38;;;7.60;99.90;;;;;;4950562;28;20581;-74
2021/03/01 09:41:47;;;;;;;13.63;10.90;;;7.80;99.90;;;;;;4947304;29;20229;-75
2021/03/01 09:44:26;;;;;;;12.97;11.40;;;8.10;99.90;;;;;;4923632;29;20207;-74
2021/03/01 09:46:54;;;;;;;14.77;12.47;;;8.20;99.90;;;;;;4947249;29;20452;-75
2021/03/01 09:49:23;;;;;;;16.70;13.70;;;8.40;99.90;;;;;;4948985;29;20464;-75
2021/03/01 09:51:50;;;;;;;15.57;13.67;;;8.40;99.90;;;;;;4933237;29;20512;-75
2021/03/01 09:54:17;;;;;;;15.57;11.97;;;8.70;99.90;;;;;;4949534;29;20448;-76
2021/03/01 09:56:49;;;;;;;14.63;13.03;;;8.90;99.90;;;;;;4949775;28;20437;-74
2021/03/01 09:59:38;;;;;;;15.20;12.90;;;9.00;99.90;;;;;;4949270;29;20433;-75
2021/03/01 10:02:07;;;;;;;15.57;12.43;;;9.00;99.90;;;;;;4948179;29;20865;-75
2021/03/01 10:04:34;;;;;;;16.37;12.37;;;9.10;99.90;;;;;;4949020;29;20804;-75
2021/03/01 10:07:16;;;;;;;13.80;12.40;;;9.30;99.90;;;;;;4949555;29;20438;-75
2021/03/01 10:09:42;;;;;;;15.30;11.77;;;9.50;99.90;;;;;;4947882;29;20469;-75
2021/03/01 10:12:08;;;;;;;15.10;13.53;;;9.60;99.90;;;;;;4948557;29;20461;-75
2021/03/01 10:14:35;;;;;;;14.67;13.17;;;9.60;99.90;;;;;;4950739;28;20430;-75
2021/03/01 10:17:14;;;;;;;15.33;13.70;;;9.30;99.90;;;;;;4948198;29;20441;-75
2021/03/01 10:19:40;;;;;;;15.10;12.67;;;9.50;99.90;;;;;;4926191;29;20437;-75
2021/03/01 10:22:07;;;;;;;15.70;13.37;;;9.70;99.90;;;;;;4947832;29;20580;-75
2021/03/01 10:24:43;;;;;;;14.97;12.83;;;9.60;99.90;;;;;;4950271;29;20433;-75
2021/03/01 10:27:13;;;;;;;14.60;12.70;;;9.50;99.90;;;;;;4942209;29;20913;-75
2021/03/01 10:29:53;;;;;;;14.60;13.00;;;9.50;99.90;;;;;;4949302;29;20470;-75
2021/03/01 10:32:26;;;;;;;17.33;11.97;;;9.60;99.90;;;;;;4947822;29;20795;-75
2021/03/01 10:34:55;;;;;;;15.27;12.50;;;9.80;99.90;;;;;;4950378;28;20532;-75
2021/03/01 10:37:26;;;;;;;14.53;12.77;;;9.90;99.90;;;;;;4948251;29;20458;-75
2021/03/01 10:39:56;;;;;;;16.90;13.40;;;10.00;99.90;;;;;;4946637;29;20867;-75
2021/03/01 10:42:24;;;;;;;15.50;13.83;;;9.70;99.90;;;;;;4949366;29;20469;-74
2021/03/01 10:45:02;;;;;;;16.47;14.07;;;9.70;99.90;;;;;;4950696;28;20470;-75
2021/03/01 10:47:33;;;;;;;19.27;14.50;;;9.70;99.90;;;;;;4952413;28;20428;-75
2021/03/01 10:50:19;;;;;;;18.63;14.03;;;9.60;99.90;;;;;;4951774;29;20480;-76
2021/03/01 10:52:45;;;;;;;18.67;13.63;;;9.50;99.90;;;;;;4951768;29;20992;-75
2021/03/01 10:55:11;;;;;;;15.90;13.37;;;9.50;99.90;;;;;;4951286;29;20503;-76
2021/03/01 10:57:38;;;;;;;17.80;14.30;;;9.40;99.90;;;;;;4952085;29;20449;-76
2021/03/01 11:00:05;;;;;;;14.30;12.80;;;9.40;99.90;;;;;;4952487;29;20447;-75
2021/03/01 11:02:31;;;;;;;16.33;14.70;;;9.40;99.90;;;;;;4952031;28;20481;-76
2021/03/01 11:05:02;;;;;;;16.57;13.90;;;9.40;99.90;;;;;;4937600;29;20998;-77
2021/03/01 11:07:31;;;;;;;17.20;14.30;;;9.40;99.90;;;;;;4952733;29;20966;-75
2021/03/01 11:09:58;;;;;;;15.53;13.60;;;9.60;99.90;;;;;;4935066;29;20560;-75
2021/03/01 11:12:24;;;;;;;16.40;12.77;;;9.70;99.90;;;;;;4943588;29;20526;-75
2021/03/01 11:14:51;;;;;;;16.90;14.03;;;9.80;99.90;;;;;;4960804;28;20436;-75
2021/03/01 11:17:19;;;;;;;16.77;13.50;;;9.60;99.90;;;;;;4952619;28;20430;-75
2021/03/01 11:19:45;;;;;;;18.77;14.00;;;9.50;99.90;;;;;;4952676;28;20919;-75
2021/03/01 11:22:11;;;;;;;17.13;13.10;;;9.50;99.90;;;;;;4953254;29;20934;-75
2021/03/01 11:24:37;;;;;;;16.93;12.80;;;9.60;99.90;;;;;;4952368;29;20449;-77
2021/03/01 11:27:04;;;;;;;19.00;14.27;;;9.60;99.90;;;;;;4951107;29;21001;-76
2021/03/01 11:29:34;;;;;;;15.60;13.10;;;9.50;99.90;;;;;;4950974;29;20482;-77
2021/03/01 11:32:00;;;;;;;15.45;13.70;;;9.50;99.90;;;;;;4935152;29;20431;-77
2021/03/01 11:34:26;;;;;;;17.30;13.10;;;9.40;99.90;;;;;;4935713;29;20270;-77
2021/03/01 11:36:52;;;;;;;16.23;13.83;;;9.40;99.90;;;;;;4950504;29;20434;-76
2021/03/01 11:39:18;;;;;;;14.10;12.17;;;9.40;99.90;;;;;;4952659;29;20516;-76
2021/03/01 11:41:44;;;;;;;16.23;13.13;;;9.40;99.90;;;;;;4954035;28;20450;-79
2021/03/01 11:44:11;;;;;;;22.00;14.67;;;9.50;99.90;;;;;;4951477;29;20435;-78
2021/03/01 11:46:37;;;;;;;16.27;12.13;;;9.50;99.90;;;;;;4951248;29;20477;-77
2021/03/01 11:49:04;;;;;;;13.33;11.60;;;9.60;99.90;;;;;;4951527;29;20545;-77
2021/03/01 11:51:29;;;;;;;18.47;14.00;;;9.70;99.90;;;;;;4952599;29;20983;-77
2021/03/01 11:54:04;;;;;;;15.10;13.37;;;9.70;99.90;;;;;;4952006;29;20514;-77
2021/03/01 11:56:32;;;;;;;17.67;15.00;;;9.80;99.90;;;;;;4934657;29;20502;-78
2021/03/01 11:59:04;;;;;;;19.13;14.87;;;9.90;99.90;;;;;;4953198;28;20440;-77
2021/03/01 12:01:30;;;;;;;18.87;15.27;;;9.90;99.90;;;;;;4949515;29;21036;-77
2021/03/01 12:04:01;;;;;;;19.53;14.40;;;9.90;99.90;;;;;;4949843;29;20521;-77
2021/03/01 12:06:27;;;;;;;19.80;14.40;;;10.00;99.90;;;;;;4951153;29;20441;-77
2021/03/01 12:08:53;;;;;;;19.03;14.80;;;10.10;99.90;;;;;;4936060;29;20475;-77
2021/03/01 12:11:19;;;;;;;17.77;13.90;;;10.10;99.90;;;;;;4951145;29;20465;-75
2021/03/01 12:13:51;;;;;;;19.90;15.27;;;10.10;99.90;;;;;;4943945;29;20494;-76
2021/03/01 12:16:20;;;;;;;18.53;15.60;;;10.20;99.90;;;;;;4935565;29;20489;-77
2021/03/01 12:18:46;;;;;;;18.20;14.43;;;10.10;99.90;;;;;;4949117;29;20886;-77
2021/03/01 12:21:14;;;;;;;17.77;14.77;;;10.00;99.90;;;;;;4965727;28;20473;-77
2021/03/01 12:23:48;;;;;;;19.50;16.27;;;10.00;99.90;;;;;;4952274;29;20936;-77
2021/03/01 12:26:17;;;;;;;18.23;15.00;;;10.10;99.90;;;;;;4952997;28;20449;-77
2021/03/01 12:28:43;;;;;;;19.57;14.97;;;10.20;99.90;;;;;;4951291;29;20474;-77
2021/03/01 12:31:12;;;;;;;22.43;15.40;;;10.30;99.90;;;;;;4951440;29;20443;-77
2021/03/01 12:33:38;;;;;;;21.97;15.97;;;10.30;99.90;;;;;;4953104;28;20556;-77
2021/03/01 12:36:07;;;;;;;19.07;14.80;;;10.40;99.90;;;;;;4952323;28;20528;-77
2021/03/01 12:38:33;;;;;;;18.97;15.20;;;10.40;99.90;;;;;;4935172;29;20466;-77
2021/03/01 12:41:00;;;;;;;19.03;14.97;;;10.40;99.90;;;;;;4951140;29;20451;-77
2021/03/01 12:43:29;;;;;;;19.43;15.97;;;10.40;99.90;;;;;;4950758;29;20503;-77
2021/03/01 12:45:57;;;;;;;20.60;15.53;;;10.50;99.90;;;;;;4952269;28;20928;-77
2021/03/01 12:48:23;;;;;;;21.47;16.23;;;10.40;99.90;;;;;;4951253;29;20494;-77
2021/03/01 12:50:53;;;;;;;20.93;16.27;;;10.30;99.90;;;;;;4951339;29;20574;-77
2021/03/01 12:53:20;;;;;;;22.20;16.13;;;10.30;99.90;;;;;;4951116;28;20445;-77
2021/03/01 12:55:48;;;;;;;22.83;16.33;;;10.50;99.90;;;;;;4950547;29;20422;-77
2021/03/01 12:58:18;;;;;;;20.53;16.17;;;10.50;99.90;;;;;;4952263;28;20439;-77
2021/03/01 13:00:45;;;;;;;21.63;17.37;;;10.50;99.90;;;;;;4952034;29;20979;-77
2021/03/01 13:03:19;;;;;;;22.93;16.60;;;10.50;99.90;;;;;;4950059;29;20462;-77
2021/03/01 13:05:51;;;;;;;19.73;15.60;;;10.50;99.90;;;;;;4936044;28;20437;-77